sensor_id;sensor_type;location;lat;lon;timestamp;P1;durP1;ratioP1;P2;durP2;ratioP2
595;SDS011;19946;49.306;11.350;2023-06-22T00:01:27;1.70;;;1.70;;
595;SDS011;19946;49.306;11.350;2023-06-22T00:04:27;2.07;;;2.07;;
595;SDS011;19946;49.306;11.350;2023-06-22T00:07:28;2.10;;;2.10;;
595;SDS011;19946;49.306;11.350;2023-06-22T00:10:28;2.10;;;2.10;;
595;SDS011;19946;49.306;11.350;2023-06-22T00:13:28;1.70;;;1.70;;
595;SDS011;19946;49.306;11.350;2023-06-22T00:16:29;2.10;;;2.10;;
595;SDS011;19946;49.306;11.350;2023-06-22T00:19:29;2.77;;;2.77;;
595;SDS011;19946;49.306;11.350;2023-06-22T00:22:30;2.83;;;2.83;;
595;SDS011;19946;49.306;11.350;2023-06-22T00:25:30;2.83;;;2.83;;
595;SDS011;19946;49.306;11.350;2023-06-22T00:28:30;2.30;;;2.30;;
595;SDS011;19946;49.306;11.350;2023-06-22T00:31:31;3.47;;;3.47;;
595;SDS011;19946;49.306;11.350;2023-06-22T00:34:31;3.10;;;3.10;;
595;SDS011;19946;49.306;11.350;2023-06-22T00:37:33;3.10;;;3.10;;
595;SDS011;19946;49.306;11.350;2023-06-22T00:40:35;3.70;;;3.70;;
595;SDS011;19946;49.306;11.350;2023-06-22T00:43:36;4.00;;;4.00;;
595;SDS011;19946;49.306;11.350;2023-06-22T00:46:37;4.43;;;4.43;;
595;SDS011;19946;49.306;11.350;2023-06-22T00:49:37;5.57;;;5.53;;
595;SDS011;19946;49.306;11.350;2023-06-22T00:52:38;6.20;;;6.10;;
595;SDS011;19946;49.306;11.350;2023-06-22T00:55:44;3.80;;;3.80;;
595;SDS011;19946;49.306;11.350;2023-06-22T00:58:46;1.80;;;1.80;;
595;SDS011;19946;49.306;11.350;2023-06-22T01:01:47;1.20;;;1.20;;
595;SDS011;19946;49.306;11.350;2023-06-22T01:04:47;0.60;;;0.60;;
595;SDS011;19946;49.306;11.350;2023-06-22T01:11:00;0.90;;;0.90;;
595;SDS011;19946;49.306;11.350;2023-06-22T01:14:10;1.00;;;1.00;;
595;SDS011;19946;49.306;11.350;2023-06-22T01:17:15;0.90;;;0.90;;
595;SDS011;19946;49.306;11.350;2023-06-22T01:20:18;1.10;;;1.10;;
595;SDS011;19946;49.306;11.350;2023-06-22T01:23:37;0.80;;;0.80;;
595;SDS011;19946;49.306;11.350;2023-06-22T01:30:22;0.50;;;0.50;;
595;SDS011;19946;49.306;11.350;2023-06-22T01:33:26;0.50;;;0.50;;
595;SDS011;19946;49.306;11.350;2023-06-22T01:36:27;0.60;;;0.60;;
595;SDS011;19946;49.306;11.350;2023-06-22T01:39:29;0.60;;;0.60;;
595;SDS011;19946;49.306;11.350;2023-06-22T01:42:31;0.70;;;0.70;;
595;SDS011;19946;49.306;11.350;2023-06-22T01:45:33;0.80;;;0.80;;
595;SDS011;19946;49.306;11.350;2023-06-22T01:48:34;1.00;;;1.00;;
595;SDS011;19946;49.306;11.350;2023-06-22T01:51:35;0.90;;;0.90;;
595;SDS011;19946;49.306;11.350;2023-06-22T01:54:36;0.90;;;0.90;;
595;SDS011;19946;49.306;11.350;2023-06-22T01:57:38;1.10;;;1.10;;
595;SDS011;19946;49.306;11.350;2023-06-22T02:00:40;1.67;;;1.67;;
595;SDS011;19946;49.306;11.350;2023-06-22T02:03:50;1.43;;;1.43;;
595;SDS011;19946;49.306;11.350;2023-06-22T02:06:56;1.40;;;1.40;;
595;SDS011;19946;49.306;11.350;2023-06-22T02:09:59;1.20;;;1.20;;
595;SDS011;19946;49.306;11.350;2023-06-22T02:13:03;1.60;;;1.60;;
595;SDS011;19946;49.306;11.350;2023-06-22T02:16:06;1.73;;;1.73;;
595;SDS011;19946;49.306;11.350;2023-06-22T02:19:07;1.23;;;1.23;;
595;SDS011;19946;49.306;11.350;2023-06-22T02:22:08;1.47;;;1.47;;
595;SDS011;19946;49.306;11.350;2023-06-22T02:25:08;1.10;;;1.10;;
595;SDS011;19946;49.306;11.350;2023-06-22T02:28:08;0.87;;;0.87;;
595;SDS011;19946;49.306;11.350;2023-06-22T02:31:09;1.13;;;1.13;;
595;SDS011;19946;49.306;11.350;2023-06-22T02:34:09;0.97;;;0.97;;
595;SDS011;19946;49.306;11.350;2023-06-22T02:37:09;1.50;;;1.50;;
595;SDS011;19946;49.306;11.350;2023-06-22T02:40:14;1.50;;;1.50;;
595;SDS011;19946;49.306;11.350;2023-06-22T02:43:14;1.07;;;1.07;;
595;SDS011;19946;49.306;11.350;2023-06-22T02:46:15;0.83;;;0.83;;
595;SDS011;19946;49.306;11.350;2023-06-22T02:49:16;1.20;;;1.20;;
595;SDS011;19946;49.306;11.350;2023-06-22T02:52:17;1.30;;;1.30;;
595;SDS011;19946;49.306;11.350;2023-06-22T02:55:17;1.60;;;1.60;;
595;SDS011;19946;49.306;11.350;2023-06-22T02:58:25;2.00;;;2.00;;
595;SDS011;19946;49.306;11.350;2023-06-22T03:01:26;2.40;;;2.40;;
595;SDS011;19946;49.306;11.350;2023-06-22T03:04:28;1.40;;;1.40;;
595;SDS011;19946;49.306;11.350;2023-06-22T03:07:28;0.80;;;0.80;;
595;SDS011;19946;49.306;11.350;2023-06-22T03:10:30;1.33;;;1.33;;
595;SDS011;19946;49.306;11.350;2023-06-22T03:13:30;1.60;;;1.60;;
595;SDS011;19946;49.306;11.350;2023-06-22T03:16:31;2.20;;;2.20;;
595;SDS011;19946;49.306;11.350;2023-06-22T03:19:32;1.70;;;1.70;;
595;SDS011;19946;49.306;11.350;2023-06-22T03:22:32;1.50;;;1.50;;
595;SDS011;19946;49.306;11.350;2023-06-22T03:25:32;1.00;;;1.00;;
595;SDS011;19946;49.306;11.350;2023-06-22T03:28:34;1.30;;;1.30;;
595;SDS011;19946;49.306;11.350;2023-06-22T03:31:35;0.90;;;0.90;;
595;SDS011;19946;49.306;11.350;2023-06-22T03:34:35;0.60;;;0.60;;
595;SDS011;19946;49.306;11.350;2023-06-22T03:37:36;0.50;;;0.50;;
595;SDS011;19946;49.306;11.350;2023-06-22T03:40:36;0.50;;;0.50;;
595;SDS011;19946;49.306;11.350;2023-06-22T03:43:36;0.70;;;0.70;;
595;SDS011;19946;49.306;11.350;2023-06-22T03:46:38;0.60;;;0.60;;
595;SDS011;19946;49.306;11.350;2023-06-22T03:49:38;0.57;;;0.57;;
595;SDS011;19946;49.306;11.350;2023-06-22T03:52:39;0.50;;;0.50;;
595;SDS011;19946;49.306;11.350;2023-06-22T03:55:49;0.50;;;0.50;;
595;SDS011;19946;49.306;11.350;2023-06-22T03:58:52;0.60;;;0.60;;
595;SDS011;19946;49.306;11.350;2023-06-22T04:01:53;0.60;;;0.60;;
595;SDS011;19946;49.306;11.350;2023-06-22T04:04:53;0.43;;;0.43;;
595;SDS011;19946;49.306;11.350;2023-06-22T04:07:53;0.47;;;0.47;;
595;SDS011;19946;49.306;11.350;2023-06-22T04:10:54;0.40;;;0.40;;
595;SDS011;19946;49.306;11.350;2023-06-22T04:13:54;0.40;;;0.40;;
595;SDS011;19946;49.306;11.350;2023-06-22T04:16:55;0.50;;;0.50;;
595;SDS011;19946;49.306;11.350;2023-06-22T04:19:55;0.50;;;0.50;;
595;SDS011;19946;49.306;11.350;2023-06-22T04:22:56;0.60;;;0.60;;
595;SDS011;19946;49.306;11.350;2023-06-22T04:25:56;0.60;;;0.60;;
595;SDS011;19946;49.306;11.350;2023-06-22T04:28:57;0.50;;;0.50;;
595;SDS011;19946;49.306;11.350;2023-06-22T04:31:58;1.00;;;1.00;;
595;SDS011;19946;49.306;11.350;2023-06-22T04:35:03;1.20;;;1.20;;
595;SDS011;19946;49.306;11.350;2023-06-22T04:38:06;1.40;;;1.40;;
595;SDS011;19946;49.306;11.350;2023-06-22T04:41:07;1.73;;;1.73;;
595;SDS011;19946;49.306;11.350;2023-06-22T04:44:13;0.90;;;0.90;;
595;SDS011;19946;49.306;11.350;2023-06-22T04:47:23;0.80;;;0.80;;
595;SDS011;19946;49.306;11.350;2023-06-22T04:50:23;0.70;;;0.70;;
595;SDS011;19946;49.306;11.350;2023-06-22T04:53:24;0.70;;;0.70;;
595;SDS011;19946;49.306;11.350;2023-06-22T04:56:29;0.60;;;0.60;;
595;SDS011;19946;49.306;11.350;2023-06-22T04:59:30;0.60;;;0.60;;
595;SDS011;19946;49.306;11.350;2023-06-22T05:02:31;0.40;;;0.40;;
595;SDS011;19946;49.306;11.350;2023-06-22T05:05:32;0.40;;;0.40;;
595;SDS011;19946;49.306;11.350;2023-06-22T05:08:33;0.43;;;0.43;;
595;SDS011;19946;49.306;11.350;2023-06-22T05:11:33;0.40;;;0.40;;
595;SDS011;19946;49.306;11.350;2023-06-22T05:14:33;0.50;;;0.50;;
595;SDS011;19946;49.306;11.350;2023-06-22T05:17:34;0.40;;;0.40;;
595;SDS011;19946;49.306;11.350;2023-06-22T05:20:35;0.50;;;0.50;;
595;SDS011;19946;49.306;11.350;2023-06-22T05:23:36;0.60;;;0.60;;
595;SDS011;19946;49.306;11.350;2023-06-22T05:26:36;0.70;;;0.70;;
595;SDS011;19946;49.306;11.350;2023-06-22T05:29:37;0.70;;;0.70;;
595;SDS011;19946;49.306;11.350;2023-06-22T05:32:37;0.80;;;0.80;;
595;SDS011;19946;49.306;11.350;2023-06-22T05:35:38;1.30;;;1.30;;
595;SDS011;19946;49.306;11.350;2023-06-22T05:38:38;1.33;;;1.33;;
595;SDS011;19946;49.306;11.350;2023-06-22T05:41:39;1.60;;;1.60;;
595;SDS011;19946;49.306;11.350;2023-06-22T05:44:40;1.80;;;1.80;;
595;SDS011;19946;49.306;11.350;2023-06-22T05:47:40;1.97;;;1.97;;
595;SDS011;19946;49.306;11.350;2023-06-22T05:50:41;1.50;;;1.50;;
595;SDS011;19946;49.306;11.350;2023-06-22T05:53:42;1.90;;;1.90;;
595;SDS011;19946;49.306;11.350;2023-06-22T05:56:42;2.10;;;2.10;;
595;SDS011;19946;49.306;11.350;2023-06-22T05:59:42;1.90;;;1.90;;
595;SDS011;19946;49.306;11.350;2023-06-22T06:02:43;2.00;;;2.00;;
595;SDS011;19946;49.306;11.350;2023-06-22T06:05:44;1.80;;;1.80;;
595;SDS011;19946;49.306;11.350;2023-06-22T06:08:45;2.00;;;2.00;;
595;SDS011;19946;49.306;11.350;2023-06-22T06:11:45;2.57;;;2.57;;
595;SDS011;19946;49.306;11.350;2023-06-22T06:14:46;1.60;;;1.60;;
595;SDS011;19946;49.306;11.350;2023-06-22T06:17:51;1.40;;;1.40;;
595;SDS011;19946;49.306;11.350;2023-06-22T06:20:52;1.70;;;1.70;;
595;SDS011;19946;49.306;11.350;2023-06-22T06:23:53;1.93;;;1.93;;
595;SDS011;19946;49.306;11.350;2023-06-22T06:26:53;2.07;;;2.07;;
595;SDS011;19946;49.306;11.350;2023-06-22T06:29:53;2.47;;;2.47;;
595;SDS011;19946;49.306;11.350;2023-06-22T06:32:53;2.37;;;2.37;;
595;SDS011;19946;49.306;11.350;2023-06-22T06:35:54;2.37;;;2.37;;
595;SDS011;19946;49.306;11.350;2023-06-22T06:38:55;2.50;;;2.50;;
595;SDS011;19946;49.306;11.350;2023-06-22T06:41:57;2.20;;;2.20;;
595;SDS011;19946;49.306;11.350;2023-06-22T06:44:57;2.30;;;2.30;;
595;SDS011;19946;49.306;11.350;2023-06-22T06:47:57;2.27;;;2.27;;
595;SDS011;19946;49.306;11.350;2023-06-22T06:50:58;2.30;;;2.30;;
595;SDS011;19946;49.306;11.350;2023-06-22T06:53:58;2.60;;;2.60;;
595;SDS011;19946;49.306;11.350;2023-06-22T06:56:58;3.23;;;3.23;;
595;SDS011;19946;49.306;11.350;2023-06-22T06:59:59;2.90;;;2.90;;
595;SDS011;19946;49.306;11.350;2023-06-22T07:02:59;2.77;;;2.77;;
595;SDS011;19946;49.306;11.350;2023-06-22T07:06:00;2.80;;;2.77;;
595;SDS011;19946;49.306;11.350;2023-06-22T07:09:00;3.50;;;3.40;;
595;SDS011;19946;49.306;11.350;2023-06-22T07:12:01;2.87;;;2.80;;
595;SDS011;19946;49.306;11.350;2023-06-22T07:15:04;3.10;;;3.00;;
595;SDS011;19946;49.306;11.350;2023-06-22T07:18:08;2.70;;;2.70;;
595;SDS011;19946;49.306;11.350;2023-06-22T07:21:08;3.17;;;3.13;;
595;SDS011;19946;49.306;11.350;2023-06-22T07:24:09;2.57;;;2.57;;
595;SDS011;19946;49.306;11.350;2023-06-22T07:27:09;3.40;;;3.40;;
595;SDS011;19946;49.306;11.350;2023-06-22T07:30:12;2.63;;;2.60;;
595;SDS011;19946;49.306;11.350;2023-06-22T07:33:13;2.23;;;2.23;;
595;SDS011;19946;49.306;11.350;2023-06-22T07:36:13;2.33;;;2.33;;
595;SDS011;19946;49.306;11.350;2023-06-22T07:39:13;2.90;;;2.87;;
595;SDS011;19946;49.306;11.350;2023-06-22T07:42:14;2.63;;;2.53;;
595;SDS011;19946;49.306;11.350;2023-06-22T07:45:18;2.40;;;2.40;;
595;SDS011;19946;49.306;11.350;2023-06-22T07:48:22;2.43;;;2.40;;
595;SDS011;19946;49.306;11.350;2023-06-22T07:51:22;2.63;;;2.57;;
595;SDS011;19946;49.306;11.350;2023-06-22T07:54:23;2.10;;;2.10;;
595;SDS011;19946;49.306;11.350;2023-06-22T07:57:24;2.17;;;2.17;;
595;SDS011;19946;49.306;11.350;2023-06-22T08:00:33;2.20;;;2.20;;
595;SDS011;19946;49.306;11.350;2023-06-22T08:03:34;2.37;;;2.37;;
595;SDS011;19946;49.306;11.350;2023-06-22T08:06:34;2.53;;;2.43;;
595;SDS011;19946;49.306;11.350;2023-06-22T08:09:35;1.97;;;1.97;;
595;SDS011;19946;49.306;11.350;2023-06-22T08:12:35;2.03;;;2.00;;
595;SDS011;19946;49.306;11.350;2023-06-22T08:15:35;2.00;;;2.00;;
595;SDS011;19946;49.306;11.350;2023-06-22T08:18:36;2.00;;;2.00;;
595;SDS011;19946;49.306;11.350;2023-06-22T08:21:36;2.83;;;2.50;;
595;SDS011;19946;49.306;11.350;2023-06-22T08:24:37;1.93;;;1.93;;
595;SDS011;19946;49.306;11.350;2023-06-22T08:27:37;2.30;;;2.23;;
595;SDS011;19946;49.306;11.350;2023-06-22T08:30:38;3.50;;;2.80;;
595;SDS011;19946;49.306;11.350;2023-06-22T08:33:38;2.87;;;2.40;;
595;SDS011;19946;49.306;11.350;2023-06-22T08:36:39;2.43;;;2.27;;
595;SDS011;19946;49.306;11.350;2023-06-22T08:39:41;1.80;;;1.80;;
595;SDS011;19946;49.306;11.350;2023-06-22T08:42:41;2.57;;;2.40;;
595;SDS011;19946;49.306;11.350;2023-06-22T08:45:42;2.60;;;2.40;;
595;SDS011;19946;49.306;11.350;2023-06-22T08:48:42;2.00;;;2.00;;
595;SDS011;19946;49.306;11.350;2023-06-22T08:51:42;2.20;;;2.10;;
595;SDS011;19946;49.306;11.350;2023-06-22T08:54:44;2.07;;;2.00;;
595;SDS011;19946;49.306;11.350;2023-06-22T08:57:45;2.13;;;2.03;;
595;SDS011;19946;49.306;11.350;2023-06-22T09:00:45;1.87;;;1.80;;
595;SDS011;19946;49.306;11.350;2023-06-22T09:03:45;1.67;;;1.60;;
595;SDS011;19946;49.306;11.350;2023-06-22T09:06:54;4.47;;;2.17;;
595;SDS011;19946;49.306;11.350;2023-06-22T09:09:55;2.80;;;1.67;;
595;SDS011;19946;49.306;11.350;2023-06-22T09:12:56;1.90;;;1.23;;
595;SDS011;19946;49.306;11.350;2023-06-22T09:15:57;1.20;;;1.20;;
595;SDS011;19946;49.306;11.350;2023-06-22T09:18:57;2.60;;;1.67;;
595;SDS011;19946;49.306;11.350;2023-06-22T09:21:58;1.53;;;1.33;;
595;SDS011;19946;49.306;11.350;2023-06-22T09:24:58;1.30;;;1.10;;
595;SDS011;19946;49.306;11.350;2023-06-22T09:27:59;2.27;;;1.50;;
595;SDS011;19946;49.306;11.350;2023-06-22T09:31:00;2.37;;;1.87;;
595;SDS011;19946;49.306;11.350;2023-06-22T09:34:00;1.33;;;1.23;;
595;SDS011;19946;49.306;11.350;2023-06-22T09:37:01;2.60;;;1.70;;
595;SDS011;19946;49.306;11.350;2023-06-22T09:40:01;2.27;;;1.53;;
595;SDS011;19946;49.306;11.350;2023-06-22T09:43:08;2.47;;;1.37;;
595;SDS011;19946;49.306;11.350;2023-06-22T09:46:08;1.70;;;1.17;;
595;SDS011;19946;49.306;11.350;2023-06-22T09:49:10;0.97;;;0.87;;
595;SDS011;19946;49.306;11.350;2023-06-22T09:52:10;1.40;;;1.30;;
595;SDS011;19946;49.306;11.350;2023-06-22T09:55:11;0.87;;;0.87;;
595;SDS011;19946;49.306;11.350;2023-06-22T09:58:11;0.67;;;0.67;;
595;SDS011;19946;49.306;11.350;2023-06-22T10:01:12;0.90;;;0.83;;
595;SDS011;19946;49.306;11.350;2023-06-22T10:04:16;1.03;;;1.03;;
595;SDS011;19946;49.306;11.350;2023-06-22T10:07:16;2.60;;;1.40;;
595;SDS011;19946;49.306;11.350;2023-06-22T10:10:17;2.47;;;1.03;;
595;SDS011;19946;49.306;11.350;2023-06-22T10:13:17;0.50;;;0.50;;
595;SDS011;19946;49.306;11.350;2023-06-22T10:16:18;1.23;;;0.90;;
595;SDS011;19946;49.306;11.350;2023-06-22T10:19:19;0.57;;;0.57;;
595;SDS011;19946;49.306;11.350;2023-06-22T10:22:19;1.47;;;1.37;;
595;SDS011;19946;49.306;11.350;2023-06-22T10:25:19;1.13;;;0.70;;
595;SDS011;19946;49.306;11.350;2023-06-22T10:28:20;1.03;;;0.83;;
595;SDS011;19946;49.306;11.350;2023-06-22T10:31:20;0.57;;;0.47;;
595;SDS011;19946;49.306;11.350;2023-06-22T10:34:20;0.50;;;0.50;;
595;SDS011;19946;49.306;11.350;2023-06-22T10:37:21;1.20;;;0.80;;
595;SDS011;19946;49.306;11.350;2023-06-22T10:40:21;3.57;;;1.37;;
595;SDS011;19946;49.306;11.350;2023-06-22T10:43:21;0.57;;;0.57;;
595;SDS011;19946;49.306;11.350;2023-06-22T10:46:23;2.17;;;0.90;;
595;SDS011;19946;49.306;11.350;2023-06-22T10:49:24;0.90;;;0.67;;
595;SDS011;19946;49.306;11.350;2023-06-22T10:52:25;0.90;;;0.63;;
595;SDS011;19946;49.306;11.350;2023-06-22T10:55:25;2.27;;;1.17;;
595;SDS011;19946;49.306;11.350;2023-06-22T10:58:25;0.73;;;0.63;;
595;SDS011;19946;49.306;11.350;2023-06-22T11:01:26;1.50;;;1.00;;
595;SDS011;19946;49.306;11.350;2023-06-22T11:04:27;0.57;;;0.57;;
595;SDS011;19946;49.306;11.350;2023-06-22T11:07:27;4.20;;;1.40;;
595;SDS011;19946;49.306;11.350;2023-06-22T11:10:28;2.17;;;1.03;;
595;SDS011;19946;49.306;11.350;2023-06-22T11:13:29;1.87;;;0.80;;
595;SDS011;19946;49.306;11.350;2023-06-22T11:16:29;1.47;;;0.67;;
595;SDS011;19946;49.306;11.350;2023-06-22T11:19:29;1.13;;;0.60;;
595;SDS011;19946;49.306;11.350;2023-06-22T11:22:30;8.97;;;2.80;;
595;SDS011;19946;49.306;11.350;2023-06-22T11:25:33;1.87;;;0.83;;
595;SDS011;19946;49.306;11.350;2023-06-22T11:28:38;1.80;;;0.87;;
595;SDS011;19946;49.306;11.350;2023-06-22T11:31:38;0.40;;;0.40;;
595;SDS011;19946;49.306;11.350;2023-06-22T11:34:39;1.47;;;0.90;;
595;SDS011;19946;49.306;11.350;2023-06-22T11:37:39;3.83;;;1.60;;
595;SDS011;19946;49.306;11.350;2023-06-22T11:40:40;1.13;;;0.60;;
595;SDS011;19946;49.306;11.350;2023-06-22T11:43:40;1.37;;;0.57;;
595;SDS011;19946;49.306;11.350;2023-06-22T11:46:41;0.93;;;0.73;;
595;SDS011;19946;49.306;11.350;2023-06-22T11:49:41;2.87;;;1.07;;
595;SDS011;19946;49.306;11.350;2023-06-22T11:52:41;1.40;;;0.80;;
595;SDS011;19946;49.306;11.350;2023-06-22T11:55:42;0.50;;;0.50;;
595;SDS011;19946;49.306;11.350;2023-06-22T11:58:42;4.83;;;1.73;;
595;SDS011;19946;49.306;11.350;2023-06-22T12:01:42;5.67;;;1.77;;
595;SDS011;19946;49.306;11.350;2023-06-22T12:04:43;2.77;;;1.10;;
595;SDS011;19946;49.306;11.350;2023-06-22T12:07:43;5.17;;;1.73;;
595;SDS011;19946;49.306;11.350;2023-06-22T12:10:43;2.87;;;0.97;;
595;SDS011;19946;49.306;11.350;2023-06-22T12:13:44;4.20;;;1.07;;
595;SDS011;19946;49.306;11.350;2023-06-22T12:16:44;2.40;;;1.10;;
595;SDS011;19946;49.306;11.350;2023-06-22T12:19:44;0.93;;;0.60;;
595;SDS011;19946;49.306;11.350;2023-06-22T12:22:45;2.93;;;0.90;;
595;SDS011;19946;49.306;11.350;2023-06-22T12:25:45;2.37;;;1.30;;
595;SDS011;19946;49.306;11.350;2023-06-22T12:28:45;1.03;;;0.90;;
595;SDS011;19946;49.306;11.350;2023-06-22T12:31:47;2.30;;;1.00;;
595;SDS011;19946;49.306;11.350;2023-06-22T12:34:47;3.03;;;0.90;;
595;SDS011;19946;49.306;11.350;2023-06-22T12:37:48;10.97;;;2.97;;
595;SDS011;19946;49.306;11.350;2023-06-22T12:40:48;5.00;;;1.37;;
595;SDS011;19946;49.306;11.350;2023-06-22T12:43:49;1.20;;;0.77;;
595;SDS011;19946;49.306;11.350;2023-06-22T12:46:49;2.17;;;1.00;;
595;SDS011;19946;49.306;11.350;2023-06-22T12:49:50;2.13;;;0.93;;
595;SDS011;19946;49.306;11.350;2023-06-22T12:52:50;1.60;;;0.70;;
595;SDS011;19946;49.306;11.350;2023-06-22T12:55:50;1.47;;;0.77;;
595;SDS011;19946;49.306;11.350;2023-06-22T12:58:51;3.00;;;1.10;;
595;SDS011;19946;49.306;11.350;2023-06-22T13:01:51;2.27;;;0.90;;
595;SDS011;19946;49.306;11.350;2023-06-22T13:04:51;3.00;;;0.90;;
595;SDS011;19946;49.306;11.350;2023-06-22T13:07:52;5.57;;;1.70;;
595;SDS011;19946;49.306;11.350;2023-06-22T13:10:52;3.13;;;0.90;;
595;SDS011;19946;49.306;11.350;2023-06-22T13:13:52;4.17;;;1.10;;
595;SDS011;19946;49.306;11.350;2023-06-22T13:16:53;4.83;;;1.30;;
595;SDS011;19946;49.306;11.350;2023-06-22T13:19:53;4.33;;;1.20;;
595;SDS011;19946;49.306;11.350;2023-06-22T13:22:53;3.83;;;0.87;;
595;SDS011;19946;49.306;11.350;2023-06-22T13:25:55;11.47;;;2.27;;
595;SDS011;19946;49.306;11.350;2023-06-22T13:28:55;1.50;;;0.90;;
595;SDS011;19946;49.306;11.350;2023-06-22T13:31:55;6.97;;;1.47;;
595;SDS011;19946;49.306;11.350;2023-06-22T13:34:57;1.60;;;0.70;;
595;SDS011;19946;49.306;11.350;2023-06-22T13:37:57;1.40;;;1.00;;
595;SDS011;19946;49.306;11.350;2023-06-22T13:40:57;2.97;;;0.90;;
595;SDS011;19946;49.306;11.350;2023-06-22T13:43:59;2.87;;;0.67;;
595;SDS011;19946;49.306;11.350;2023-06-22T13:46:59;5.00;;;1.40;;
595;SDS011;19946;49.306;11.350;2023-06-22T13:50:00;3.17;;;1.07;;
595;SDS011;19946;49.306;11.350;2023-06-22T13:53:00;2.30;;;0.87;;
595;SDS011;19946;49.306;11.350;2023-06-22T13:56:00;1.73;;;0.70;;
595;SDS011;19946;49.306;11.350;2023-06-22T13:59:01;2.00;;;0.73;;
595;SDS011;19946;49.306;11.350;2023-06-22T14:02:01;1.60;;;0.67;;
595;SDS011;19946;49.306;11.350;2023-06-22T14:05:01;5.03;;;1.30;;
595;SDS011;19946;49.306;11.350;2023-06-22T14:08:02;6.47;;;2.00;;
595;SDS011;19946;49.306;11.350;2023-06-22T14:11:03;1.53;;;0.67;;
595;SDS011;19946;49.306;11.350;2023-06-22T14:14:03;2.73;;;0.80;;
595;SDS011;19946;49.306;11.350;2023-06-22T14:17:04;4.87;;;1.10;;
595;SDS011;19946;49.306;11.350;2023-06-22T14:20:05;3.77;;;0.90;;
595;SDS011;19946;49.306;11.350;2023-06-22T14:23:07;2.33;;;0.80;;
595;SDS011;19946;49.306;11.350;2023-06-22T14:26:07;2.60;;;1.00;;
595;SDS011;19946;49.306;11.350;2023-06-22T14:29:08;1.50;;;0.57;;
595;SDS011;19946;49.306;11.350;2023-06-22T14:32:09;1.80;;;0.57;;
595;SDS011;19946;49.306;11.350;2023-06-22T14:35:09;4.23;;;1.00;;
595;SDS011;19946;49.306;11.350;2023-06-22T14:38:09;3.17;;;0.90;;
595;SDS011;19946;49.306;11.350;2023-06-22T14:41:10;0.83;;;0.40;;
595;SDS011;19946;49.306;11.350;2023-06-22T14:44:10;0.93;;;0.47;;
595;SDS011;19946;49.306;11.350;2023-06-22T14:47:10;1.60;;;0.50;;
595;SDS011;19946;49.306;11.350;2023-06-22T14:50:10;0.47;;;0.43;;
595;SDS011;19946;49.306;11.350;2023-06-22T14:53:11;0.90;;;0.47;;
595;SDS011;19946;49.306;11.350;2023-06-22T14:56:11;2.17;;;0.90;;
595;SDS011;19946;49.306;11.350;2023-06-22T14:59:12;1.20;;;0.70;;
595;SDS011;19946;49.306;11.350;2023-06-22T15:02:13;0.60;;;0.43;;
595;SDS011;19946;49.306;11.350;2023-06-22T15:05:13;1.07;;;0.40;;
595;SDS011;19946;49.306;11.350;2023-06-22T15:08:13;0.63;;;0.27;;
595;SDS011;19946;49.306;11.350;2023-06-22T15:11:14;3.00;;;0.80;;
595;SDS011;19946;49.306;11.350;2023-06-22T15:14:14;4.80;;;1.40;;
595;SDS011;19946;49.306;11.350;2023-06-22T15:17:15;2.57;;;0.80;;
595;SDS011;19946;49.306;11.350;2023-06-22T15:20:16;1.83;;;0.77;;
595;SDS011;19946;49.306;11.350;2023-06-22T15:23:16;2.80;;;0.83;;
595;SDS011;19946;49.306;11.350;2023-06-22T15:26:17;1.57;;;0.47;;
595;SDS011;19946;49.306;11.350;2023-06-22T15:29:17;3.93;;;0.80;;
595;SDS011;19946;49.306;11.350;2023-06-22T15:32:17;4.47;;;1.60;;
595;SDS011;19946;49.306;11.350;2023-06-22T15:35:18;6.20;;;1.37;;
595;SDS011;19946;49.306;11.350;2023-06-22T15:38:18;2.87;;;0.83;;
595;SDS011;19946;49.306;11.350;2023-06-22T15:41:18;3.70;;;0.80;;
595;SDS011;19946;49.306;11.350;2023-06-22T15:44:19;2.90;;;0.83;;
595;SDS011;19946;49.306;11.350;2023-06-22T15:47:20;1.80;;;0.67;;
595;SDS011;19946;49.306;11.350;2023-06-22T15:50:22;3.60;;;1.33;;
595;SDS011;19946;49.306;11.350;2023-06-22T15:53:22;1.60;;;0.63;;
595;SDS011;19946;49.306;11.350;2023-06-22T15:56:22;3.83;;;0.97;;
595;SDS011;19946;49.306;11.350;2023-06-22T15:59:24;3.90;;;0.77;;
595;SDS011;19946;49.306;11.350;2023-06-22T16:02:25;0.23;;;0.17;;
595;SDS011;19946;49.306;11.350;2023-06-22T16:05:26;1.03;;;0.47;;
595;SDS011;19946;49.306;11.350;2023-06-22T16:08:27;3.80;;;1.13;;
595;SDS011;19946;49.306;11.350;2023-06-22T16:11:28;1.47;;;0.60;;
595;SDS011;19946;49.306;11.350;2023-06-22T16:14:29;2.23;;;0.70;;
595;SDS011;19946;49.306;11.350;2023-06-22T16:17:29;1.40;;;0.50;;
595;SDS011;19946;49.306;11.350;2023-06-22T16:20:30;3.17;;;0.70;;
595;SDS011;19946;49.306;11.350;2023-06-22T16:23:30;3.83;;;1.20;;
595;SDS011;19946;49.306;11.350;2023-06-22T16:26:33;2.90;;;0.83;;
595;SDS011;19946;49.306;11.350;2023-06-22T16:29:38;0.27;;;0.20;;
595;SDS011;19946;49.306;11.350;2023-06-22T16:32:39;0.20;;;0.20;;
595;SDS011;19946;49.306;11.350;2023-06-22T16:35:39;1.07;;;0.40;;
595;SDS011;19946;49.306;11.350;2023-06-22T16:38:41;0.63;;;0.33;;
595;SDS011;19946;49.306;11.350;2023-06-22T16:41:43;0.10;;;0.10;;
595;SDS011;19946;49.306;11.350;2023-06-22T16:44:45;0.30;;;0.30;;
595;SDS011;19946;49.306;11.350;2023-06-22T16:47:49;0.70;;;0.37;;
595;SDS011;19946;49.306;11.350;2023-06-22T16:50:50;0.23;;;0.13;;
595;SDS011;19946;49.306;11.350;2023-06-22T16:53:54;2.60;;;0.80;;
595;SDS011;19946;49.306;11.350;2023-06-22T16:56:59;0.30;;;0.27;;
595;SDS011;19946;49.306;11.350;2023-06-22T17:00:00;0.63;;;0.27;;
595;SDS011;19946;49.306;11.350;2023-06-22T17:03:02;0.40;;;0.40;;
595;SDS011;19946;49.306;11.350;2023-06-22T17:06:05;2.70;;;0.80;;
595;SDS011;19946;49.306;11.350;2023-06-22T17:09:07;0.37;;;0.27;;
595;SDS011;19946;49.306;11.350;2023-06-22T17:12:13;0.60;;;0.33;;
595;SDS011;19946;49.306;11.350;2023-06-22T17:15:14;1.50;;;0.53;;
595;SDS011;19946;49.306;11.350;2023-06-22T17:18:14;0.73;;;0.30;;
595;SDS011;19946;49.306;11.350;2023-06-22T17:21:21;0.27;;;0.23;;
595;SDS011;19946;49.306;11.350;2023-06-22T17:24:23;0.40;;;0.30;;
595;SDS011;19946;49.306;11.350;2023-06-22T17:27:27;1.27;;;0.33;;
595;SDS011;19946;49.306;11.350;2023-06-22T17:30:29;0.20;;;0.20;;
595;SDS011;19946;49.306;11.350;2023-06-22T17:33:30;0.33;;;0.17;;
595;SDS011;19946;49.306;11.350;2023-06-22T17:36:31;0.30;;;0.30;;
595;SDS011;19946;49.306;11.350;2023-06-22T17:39:32;0.23;;;0.20;;
595;SDS011;19946;49.306;11.350;2023-06-22T17:42:32;1.30;;;0.37;;
595;SDS011;19946;49.306;11.350;2023-06-22T17:45:39;1.53;;;0.37;;
595;SDS011;19946;49.306;11.350;2023-06-22T17:48:42;0.43;;;0.30;;
595;SDS011;19946;49.306;11.350;2023-06-22T17:51:44;2.03;;;0.87;;
595;SDS011;19946;49.306;11.350;2023-06-22T17:54:45;0.23;;;0.20;;
595;SDS011;19946;49.306;11.350;2023-06-22T17:57:45;0.67;;;0.37;;
595;SDS011;19946;49.306;11.350;2023-06-22T18:00:50;1.27;;;0.57;;
595;SDS011;19946;49.306;11.350;2023-06-22T18:03:50;0.20;;;0.17;;
595;SDS011;19946;49.306;11.350;2023-06-22T18:06:50;0.10;;;0.10;;
595;SDS011;19946;49.306;11.350;2023-06-22T18:09:52;0.60;;;0.30;;
595;SDS011;19946;49.306;11.350;2023-06-22T18:12:53;0.50;;;0.40;;
595;SDS011;19946;49.306;11.350;2023-06-22T18:15:55;0.20;;;0.20;;
595;SDS011;19946;49.306;11.350;2023-06-22T18:18:56;0.17;;;0.17;;
595;SDS011;19946;49.306;11.350;2023-06-22T18:21:59;0.60;;;0.20;;
595;SDS011;19946;49.306;11.350;2023-06-22T18:24:59;1.63;;;0.57;;
595;SDS011;19946;49.306;11.350;2023-06-22T18:28:01;0.17;;;0.17;;
595;SDS011;19946;49.306;11.350;2023-06-22T18:31:01;0.17;;;0.13;;
595;SDS011;19946;49.306;11.350;2023-06-22T18:34:02;0.13;;;0.13;;